sensor_id;sensor_type;location;lat;lon;timestamp;P1;durP1;ratioP1;P2;durP2;ratioP2
65924;SDS011;66010;52.084;5.412;2023-04-24T00:01:39;0.63;;;0.63;;
65924;SDS011;66010;52.084;5.412;2023-04-24T00:04:06;0.88;;;0.63;;
65924;SDS011;66010;52.084;5.412;2023-04-24T00:06:33;1.00;;;0.70;;
65924;SDS011;66010;52.084;5.412;2023-04-24T00:09:00;1.38;;;0.80;;
65924;SDS011;66010;52.084;5.412;2023-04-24T00:11:27;3.08;;;1.00;;
65924;SDS011;66010;52.084;5.412;2023-04-24T00:13:54;2.20;;;0.93;;
65924;SDS011;66010;52.084;5.412;2023-04-24T00:16:21;2.15;;;1.30;;
65924;SDS011;66010;52.084;5.412;2023-04-24T00:18:48;2.60;;;1.27;;
65924;SDS011;66010;52.084;5.412;2023-04-24T00:21:14;2.03;;;1.10;;
65924;SDS011;66010;52.084;5.412;2023-04-24T00:23:42;3.13;;;1.30;;
65924;SDS011;66010;52.084;5.412;2023-04-24T00:26:09;1.95;;;1.25;;
65924;SDS011;66010;52.084;5.412;2023-04-24T00:28:35;3.58;;;1.33;;
65924;SDS011;66010;52.084;5.412;2023-04-24T00:31:02;2.22;;;1.30;;
65924;SDS011;66010;52.084;5.412;2023-04-24T00:33:29;2.45;;;1.10;;
65924;SDS011;66010;52.084;5.412;2023-04-24T00:35:55;2.33;;;0.90;;
65924;SDS011;66010;52.084;5.412;2023-04-24T00:38:22;1.38;;;0.90;;
65924;SDS011;66010;52.084;5.412;2023-04-24T00:40:48;2.60;;;1.10;;
65924;SDS011;66010;52.084;5.412;2023-04-24T00:43:16;2.22;;;0.80;;
65924;SDS011;66010;52.084;5.412;2023-04-24T00:45:43;2.80;;;1.00;;
65924;SDS011;66010;52.084;5.412;2023-04-24T00:48:09;2.22;;;1.27;;
65924;SDS011;66010;52.084;5.412;2023-04-24T00:50:37;1.50;;;1.10;;
65924;SDS011;66010;52.084;5.412;2023-04-24T00:53:04;3.58;;;0.95;;
65924;SDS011;66010;52.084;5.412;2023-04-24T00:55:31;4.68;;;1.10;;
65924;SDS011;66010;52.084;5.412;2023-04-24T00:57:58;2.13;;;1.17;;
65924;SDS011;66010;52.084;5.412;2023-04-24T01:00:24;3.70;;;1.05;;
65924;SDS011;66010;52.084;5.412;2023-04-24T01:02:52;2.97;;;1.42;;
65924;SDS011;66010;52.084;5.412;2023-04-24T01:05:19;2.35;;;1.33;;
65924;SDS011;66010;52.084;5.412;2023-04-24T01:07:46;2.03;;;1.30;;
65924;SDS011;66010;52.084;5.412;2023-04-24T01:10:14;4.60;;;1.60;;
65924;SDS011;66010;52.084;5.412;2023-04-24T01:12:41;3.17;;;1.40;;
65924;SDS011;66010;52.084;5.412;2023-04-24T01:15:08;1.98;;;1.15;;
65924;SDS011;66010;52.084;5.412;2023-04-24T01:17:34;1.95;;;0.90;;
65924;SDS011;66010;52.084;5.412;2023-04-24T01:20:01;1.90;;;1.05;;
65924;SDS011;66010;52.084;5.412;2023-04-24T01:22:30;2.38;;;1.05;;
65924;SDS011;66010;52.084;5.412;2023-04-24T01:24:56;2.97;;;1.50;;
65924;SDS011;66010;52.084;5.412;2023-04-24T01:27:23;3.22;;;1.10;;
65924;SDS011;66010;52.084;5.412;2023-04-24T01:29:50;2.08;;;1.40;;
65924;SDS011;66010;52.084;5.412;2023-04-24T01:32:18;2.75;;;1.33;;
65924;SDS011;66010;52.084;5.412;2023-04-24T01:34:45;3.90;;;1.80;;
65924;SDS011;66010;52.084;5.412;2023-04-24T01:37:11;1.45;;;0.88;;
65924;SDS011;66010;52.084;5.412;2023-04-24T01:39:38;3.17;;;1.30;;
65924;SDS011;66010;52.084;5.412;2023-04-24T01:42:05;3.88;;;1.60;;
65924;SDS011;66010;52.084;5.412;2023-04-24T01:44:31;1.95;;;1.10;;
65924;SDS011;66010;52.084;5.412;2023-04-24T01:49:26;2.50;;;1.17;;
65924;SDS011;66010;52.084;5.412;2023-04-24T01:51:52;3.40;;;1.48;;
65924;SDS011;66010;52.084;5.412;2023-04-24T01:54:22;2.20;;;1.55;;
65924;SDS011;66010;52.084;5.412;2023-04-24T01:56:49;2.40;;;1.40;;
65924;SDS011;66010;52.084;5.412;2023-04-24T01:59:16;2.50;;;1.30;;
65924;SDS011;66010;52.084;5.412;2023-04-24T02:01:43;2.55;;;1.02;;
65924;SDS011;66010;52.084;5.412;2023-04-24T02:04:10;3.33;;;1.23;;
65924;SDS011;66010;52.084;5.412;2023-04-24T02:06:36;4.32;;;1.10;;
65924;SDS011;66010;52.084;5.412;2023-04-24T02:09:03;2.10;;;1.10;;
65924;SDS011;66010;52.084;5.412;2023-04-24T02:11:30;1.52;;;0.75;;
65924;SDS011;66010;52.084;5.412;2023-04-24T02:13:56;2.80;;;1.42;;
65924;SDS011;66010;52.084;5.412;2023-04-24T02:16:23;1.63;;;1.10;;
65924;SDS011;66010;52.084;5.412;2023-04-24T02:18:49;2.35;;;0.98;;
65924;SDS011;66010;52.084;5.412;2023-04-24T02:21:16;4.28;;;1.00;;
65924;SDS011;66010;52.084;5.412;2023-04-24T02:23:43;2.33;;;1.10;;
65924;SDS011;66010;52.084;5.412;2023-04-24T02:26:11;2.22;;;1.02;;
65924;SDS011;66010;52.084;5.412;2023-04-24T02:28:38;1.55;;;1.00;;
65924;SDS011;66010;52.084;5.412;2023-04-24T02:31:04;2.25;;;1.00;;
65924;SDS011;66010;52.084;5.412;2023-04-24T02:33:32;3.20;;;1.30;;
65924;SDS011;66010;52.084;5.412;2023-04-24T02:35:59;1.67;;;1.02;;
65924;SDS011;66010;52.084;5.412;2023-04-24T02:38:25;3.20;;;1.33;;
65924;SDS011;66010;52.084;5.412;2023-04-24T02:40:52;1.65;;;1.10;;
65924;SDS011;66010;52.084;5.412;2023-04-24T02:43:18;1.92;;;1.20;;
65924;SDS011;66010;52.084;5.412;2023-04-24T02:45:45;2.65;;;1.42;;
65924;SDS011;66010;52.084;5.412;2023-04-24T02:48:12;1.75;;;1.08;;
65924;SDS011;66010;52.084;5.412;2023-04-24T02:50:38;2.47;;;1.05;;
65924;SDS011;66010;52.084;5.412;2023-04-24T02:53:05;2.35;;;1.10;;
65924;SDS011;66010;52.084;5.412;2023-04-24T02:55:32;2.35;;;1.38;;
65924;SDS011;66010;52.084;5.412;2023-04-24T02:57:58;2.33;;;1.17;;
65924;SDS011;66010;52.084;5.412;2023-04-24T03:00:25;2.97;;;1.20;;
65924;SDS011;66010;52.084;5.412;2023-04-24T03:02:51;2.40;;;1.20;;
65924;SDS011;66010;52.084;5.412;2023-04-24T03:05:18;2.03;;;1.00;;
65924;SDS011;66010;52.084;5.412;2023-04-24T03:07:45;3.17;;;1.23;;
65924;SDS011;66010;52.084;5.412;2023-04-24T03:10:11;1.85;;;1.00;;
65924;SDS011;66010;52.084;5.412;2023-04-24T03:12:38;4.93;;;1.25;;
65924;SDS011;66010;52.084;5.412;2023-04-24T03:15:05;4.00;;;1.13;;
65924;SDS011;66010;52.084;5.412;2023-04-24T03:17:31;3.42;;;1.20;;
65924;SDS011;66010;52.084;5.412;2023-04-24T03:19:58;1.33;;;1.02;;
65924;SDS011;66010;52.084;5.412;2023-04-24T03:22:25;1.75;;;1.00;;
65924;SDS011;66010;52.084;5.412;2023-04-24T03:24:52;2.08;;;1.13;;
65924;SDS011;66010;52.084;5.412;2023-04-24T03:27:18;2.33;;;1.00;;
65924;SDS011;66010;52.084;5.412;2023-04-24T03:30:14;2.20;;;1.00;;
65924;SDS011;66010;52.084;5.412;2023-04-24T03:32:49;2.10;;;1.02;;
65924;SDS011;66010;52.084;5.412;2023-04-24T03:35:20;1.42;;;0.93;;
65924;SDS011;66010;52.084;5.412;2023-04-24T03:37:48;2.85;;;1.05;;
65924;SDS011;66010;52.084;5.412;2023-04-24T03:40:40;2.85;;;1.30;;
65924;SDS011;66010;52.084;5.412;2023-04-24T03:43:27;3.40;;;0.90;;
65924;SDS011;66010;52.084;5.412;2023-04-24T03:45:56;1.92;;;1.02;;
65924;SDS011;66010;52.084;5.412;2023-04-24T03:48:23;2.30;;;0.90;;
65924;SDS011;66010;52.084;5.412;2023-04-24T03:50:50;2.00;;;0.90;;
65924;SDS011;66010;52.084;5.412;2023-04-24T03:53:17;2.55;;;1.13;;
65924;SDS011;66010;52.084;5.412;2023-04-24T03:55:43;3.25;;;1.00;;
65924;SDS011;66010;52.084;5.412;2023-04-24T03:58:10;5.72;;;1.35;;
65924;SDS011;66010;52.084;5.412;2023-04-24T04:00:37;2.47;;;1.20;;
65924;SDS011;66010;52.084;5.412;2023-04-24T04:03:26;3.58;;;1.20;;
65924;SDS011;66010;52.084;5.412;2023-04-24T04:05:53;1.83;;;0.90;;
65924;SDS011;66010;52.084;5.412;2023-04-24T04:08:20;1.73;;;0.98;;
65924;SDS011;66010;52.084;5.412;2023-04-24T04:10:47;1.65;;;0.85;;
65924;SDS011;66010;52.084;5.412;2023-04-24T04:13:13;1.00;;;0.73;;
65924;SDS011;66010;52.084;5.412;2023-04-24T04:15:40;1.48;;;0.90;;
65924;SDS011;66010;52.084;5.412;2023-04-24T04:18:07;3.50;;;1.10;;
65924;SDS011;66010;52.084;5.412;2023-04-24T04:23:01;3.08;;;0.98;;
65924;SDS011;66010;52.084;5.412;2023-04-24T04:25:40;2.22;;;0.85;;
65924;SDS011;66010;52.084;5.412;2023-04-24T04:28:08;2.08;;;0.80;;
65924;SDS011;66010;52.084;5.412;2023-04-24T04:30:35;3.00;;;1.00;;
65924;SDS011;66010;52.084;5.412;2023-04-24T04:33:04;2.35;;;0.80;;
65924;SDS011;66010;52.084;5.412;2023-04-24T04:37:58;1.20;;;0.90;;
65924;SDS011;66010;52.084;5.412;2023-04-24T04:40:45;3.15;;;0.80;;
65924;SDS011;66010;52.084;5.412;2023-04-24T04:43:12;2.03;;;0.90;;
65924;SDS011;66010;52.084;5.412;2023-04-24T04:45:48;2.40;;;0.90;;
65924;SDS011;66010;52.084;5.412;2023-04-24T04:51:03;1.70;;;0.80;;
65924;SDS011;66010;52.084;5.412;2023-04-24T04:53:31;1.75;;;0.90;;
65924;SDS011;66010;52.084;5.412;2023-04-24T04:55:57;2.10;;;1.00;;
65924;SDS011;66010;52.084;5.412;2023-04-24T04:58:33;3.15;;;1.10;;
65924;SDS011;66010;52.084;5.412;2023-04-24T05:01:01;2.90;;;1.02;;
65924;SDS011;66010;52.084;5.412;2023-04-24T05:03:37;2.85;;;1.00;;
65924;SDS011;66010;52.084;5.412;2023-04-24T05:06:08;2.58;;;1.15;;
65924;SDS011;66010;52.084;5.412;2023-04-24T05:08:37;4.20;;;1.90;;
65924;SDS011;66010;52.084;5.412;2023-04-24T05:11:07;4.63;;;1.77;;
65924;SDS011;66010;52.084;5.412;2023-04-24T05:13:33;4.40;;;1.70;;
65924;SDS011;66010;52.084;5.412;2023-04-24T05:16:11;4.63;;;1.70;;
65924;SDS011;66010;52.084;5.412;2023-04-24T05:18:38;4.35;;;1.50;;
65924;SDS011;66010;52.084;5.412;2023-04-24T05:21:06;3.65;;;1.38;;
65924;SDS011;66010;52.084;5.412;2023-04-24T05:23:33;3.63;;;1.50;;
65924;SDS011;66010;52.084;5.412;2023-04-24T05:26:00;2.85;;;1.30;;
65924;SDS011;66010;52.084;5.412;2023-04-24T05:28:28;3.17;;;1.20;;
65924;SDS011;66010;52.084;5.412;2023-04-24T05:31:04;3.78;;;1.20;;
65924;SDS011;66010;52.084;5.412;2023-04-24T05:33:31;1.67;;;1.10;;
65924;SDS011;66010;52.084;5.412;2023-04-24T05:35:58;3.95;;;1.23;;
65924;SDS011;66010;52.084;5.412;2023-04-24T05:38:25;2.83;;;1.20;;
65924;SDS011;66010;52.084;5.412;2023-04-24T05:40:51;2.20;;;1.13;;
65924;SDS011;66010;52.084;5.412;2023-04-24T05:43:18;3.05;;;1.05;;
65924;SDS011;66010;52.084;5.412;2023-04-24T05:45:45;2.78;;;1.13;;
65924;SDS011;66010;52.084;5.412;2023-04-24T05:48:12;3.40;;;1.23;;
65924;SDS011;66010;52.084;5.412;2023-04-24T05:50:39;2.28;;;1.10;;
65924;SDS011;66010;52.084;5.412;2023-04-24T05:53:06;4.65;;;1.30;;
65924;SDS011;66010;52.084;5.412;2023-04-24T05:55:35;3.97;;;1.25;;
65924;SDS011;66010;52.084;5.412;2023-04-24T05:58:02;6.60;;;1.20;;
65924;SDS011;66010;52.084;5.412;2023-04-24T06:00:29;4.32;;;1.65;;
65924;SDS011;66010;52.084;5.412;2023-04-24T06:03:03;6.03;;;1.50;;
65924;SDS011;66010;52.084;5.412;2023-04-24T06:05:31;6.90;;;1.63;;
65924;SDS011;66010;52.084;5.412;2023-04-24T06:07:58;4.32;;;1.60;;
65924;SDS011;66010;52.084;5.412;2023-04-24T06:10:29;5.28;;;1.30;;
65924;SDS011;66010;52.084;5.412;2023-04-24T06:12:55;3.63;;;1.55;;
65924;SDS011;66010;52.084;5.412;2023-04-24T06:15:30;4.47;;;1.33;;
65924;SDS011;66010;52.084;5.412;2023-04-24T06:18:06;3.05;;;1.38;;
65924;SDS011;66010;52.084;5.412;2023-04-24T06:20:33;1.20;;;0.90;;
65924;SDS011;66010;52.084;5.412;2023-04-24T06:23:00;2.40;;;1.00;;
65924;SDS011;66010;52.084;5.412;2023-04-24T06:25:27;4.05;;;1.10;;
65924;SDS011;66010;52.084;5.412;2023-04-24T06:27:54;1.90;;;0.90;;
65924;SDS011;66010;52.084;5.412;2023-04-24T06:30:21;2.65;;;0.82;;
65924;SDS011;66010;52.084;5.412;2023-04-24T06:32:47;1.90;;;0.80;;
65924;SDS011;66010;52.084;5.412;2023-04-24T06:35:14;5.40;;;0.98;;
65924;SDS011;66010;52.084;5.412;2023-04-24T06:37:41;1.98;;;0.80;;
65924;SDS011;66010;52.084;5.412;2023-04-24T06:40:08;1.70;;;0.90;;
65924;SDS011;66010;52.084;5.412;2023-04-24T06:42:35;4.20;;;0.98;;
65924;SDS011;66010;52.084;5.412;2023-04-24T06:45:02;3.20;;;0.90;;
65924;SDS011;66010;52.084;5.412;2023-04-24T06:47:29;2.90;;;0.90;;
65924;SDS011;66010;52.084;5.412;2023-04-24T06:49:56;4.07;;;1.00;;
65924;SDS011;66010;52.084;5.412;2023-04-24T06:52:23;2.20;;;1.08;;
65924;SDS011;66010;52.084;5.412;2023-04-24T06:54:49;4.60;;;1.20;;
65924;SDS011;66010;52.084;5.412;2023-04-24T06:57:17;2.75;;;1.13;;
65924;SDS011;66010;52.084;5.412;2023-04-24T07:02:10;2.83;;;1.02;;
65924;SDS011;66010;52.084;5.412;2023-04-24T07:04:37;3.20;;;1.30;;
65924;SDS011;66010;52.084;5.412;2023-04-24T07:07:03;4.75;;;1.60;;
65924;SDS011;66010;52.084;5.412;2023-04-24T07:09:30;5.55;;;1.95;;
65924;SDS011;66010;52.084;5.412;2023-04-24T07:14:24;3.70;;;1.40;;
65924;SDS011;66010;52.084;5.412;2023-04-24T07:16:51;4.65;;;1.70;;
65924;SDS011;66010;52.084;5.412;2023-04-24T07:19:18;4.30;;;1.70;;
65924;SDS011;66010;52.084;5.412;2023-04-24T07:21:44;6.57;;;1.70;;
65924;SDS011;66010;52.084;5.412;2023-04-24T07:24:11;9.35;;;2.33;;
65924;SDS011;66010;52.084;5.412;2023-04-24T07:26:39;6.45;;;2.00;;
65924;SDS011;66010;52.084;5.412;2023-04-24T07:31:32;5.82;;;2.03;;
65924;SDS011;66010;52.084;5.412;2023-04-24T07:33:59;6.80;;;2.35;;
65924;SDS011;66010;52.084;5.412;2023-04-24T07:36:26;7.53;;;2.53;;
65924;SDS011;66010;52.084;5.412;2023-04-24T07:38:54;7.65;;;2.50;;
65924;SDS011;66010;52.084;5.412;2023-04-24T07:41:22;4.55;;;1.60;;
65924;SDS011;66010;52.084;5.412;2023-04-24T07:43:51;3.70;;;1.17;;
65924;SDS011;66010;52.084;5.412;2023-04-24T07:46:20;6.53;;;1.20;;
65924;SDS011;66010;52.084;5.412;2023-04-24T07:48:46;2.95;;;1.08;;
65924;SDS011;66010;52.084;5.412;2023-04-24T07:51:27;3.28;;;1.10;;
65924;SDS011;66010;52.084;5.412;2023-04-24T07:53:54;2.72;;;1.02;;
65924;SDS011;66010;52.084;5.412;2023-04-24T07:56:23;1.88;;;1.00;;
65924;SDS011;66010;52.084;5.412;2023-04-24T07:58:53;1.92;;;1.02;;
65924;SDS011;66010;52.084;5.412;2023-04-24T08:01:19;2.38;;;1.10;;
65924;SDS011;66010;52.084;5.412;2023-04-24T08:03:46;3.25;;;1.20;;
65924;SDS011;66010;52.084;5.412;2023-04-24T08:06:12;3.20;;;1.20;;
65924;SDS011;66010;52.084;5.412;2023-04-24T08:08:39;5.75;;;1.20;;
65924;SDS011;66010;52.084;5.412;2023-04-24T08:11:06;7.15;;;1.42;;
65924;SDS011;66010;52.084;5.412;2023-04-24T08:13:32;3.65;;;1.33;;
65924;SDS011;66010;52.084;5.412;2023-04-24T08:15:59;3.58;;;1.30;;
65924;SDS011;66010;52.084;5.412;2023-04-24T08:18:25;3.10;;;1.30;;
65924;SDS011;66010;52.084;5.412;2023-04-24T08:20:52;7.43;;;1.38;;
65924;SDS011;66010;52.084;5.412;2023-04-24T08:23:19;3.33;;;1.30;;
65924;SDS011;66010;52.084;5.412;2023-04-24T08:25:45;3.83;;;1.80;;
65924;SDS011;66010;52.084;5.412;2023-04-24T08:28:12;5.22;;;1.58;;
65924;SDS011;66010;52.084;5.412;2023-04-24T08:30:42;4.20;;;1.40;;
65924;SDS011;66010;52.084;5.412;2023-04-24T08:33:09;5.72;;;1.50;;
65924;SDS011;66010;52.084;5.412;2023-04-24T08:35:35;3.38;;;1.25;;
65924;SDS011;66010;52.084;5.412;2023-04-24T08:38:02;3.50;;;1.30;;
65924;SDS011;66010;52.084;5.412;2023-04-24T08:40:28;5.05;;;1.45;;
65924;SDS011;66010;52.084;5.412;2023-04-24T08:42:56;4.50;;;1.48;;
65924;SDS011;66010;52.084;5.412;2023-04-24T08:45:23;4.07;;;1.40;;
65924;SDS011;66010;52.084;5.412;2023-04-24T08:47:50;4.45;;;1.20;;
65924;SDS011;66010;52.084;5.412;2023-04-24T08:50:18;3.80;;;1.48;;
65924;SDS011;66010;52.084;5.412;2023-04-24T08:52:45;5.90;;;1.58;;
65924;SDS011;66010;52.084;5.412;2023-04-24T08:55:11;4.05;;;1.48;;
65924;SDS011;66010;52.084;5.412;2023-04-24T08:57:38;4.43;;;1.33;;
65924;SDS011;66010;52.084;5.412;2023-04-24T09:00:06;3.88;;;1.40;;
65924;SDS011;66010;52.084;5.412;2023-04-24T09:02:39;2.72;;;1.20;;
65924;SDS011;66010;52.084;5.412;2023-04-24T09:05:06;4.85;;;1.50;;
65924;SDS011;66010;52.084;5.412;2023-04-24T09:07:33;4.97;;;1.58;;
65924;SDS011;66010;52.084;5.412;2023-04-24T09:10:02;30.08;;;14.18;;
65924;SDS011;66010;52.084;5.412;2023-04-24T09:12:29;25.50;;;12.43;;
65924;SDS011;66010;52.084;5.412;2023-04-24T09:14:56;34.75;;;16.42;;
65924;SDS011;66010;52.084;5.412;2023-04-24T09:19:49;29.85;;;13.75;;
65924;SDS011;66010;52.084;5.412;2023-04-24T09:22:16;23.77;;;11.48;;
65924;SDS011;66010;52.084;5.412;2023-04-24T09:24:45;27.95;;;11.50;;
65924;SDS011;66010;52.084;5.412;2023-04-24T09:27:14;22.92;;;10.18;;
65924;SDS011;66010;52.084;5.412;2023-04-24T09:29:53;20.90;;;9.88;;
65924;SDS011;66010;52.084;5.412;2023-04-24T09:32:21;20.88;;;9.13;;
65924;SDS011;66010;52.084;5.412;2023-04-24T09:34:48;19.55;;;9.45;;
65924;SDS011;66010;52.084;5.412;2023-04-24T09:37:27;20.10;;;8.50;;
65924;SDS011;66010;52.084;5.412;2023-04-24T09:42:56;18.35;;;7.70;;
65924;SDS011;66010;52.084;5.412;2023-04-24T09:45:27;20.58;;;8.00;;
65924;SDS011;66010;52.084;5.412;2023-04-24T09:47:54;16.63;;;7.47;;
65924;SDS011;66010;52.084;5.412;2023-04-24T09:52:56;15.75;;;6.80;;
65924;SDS011;66010;52.084;5.412;2023-04-24T09:55:22;16.40;;;7.00;;
65924;SDS011;66010;52.084;5.412;2023-04-24T09:57:50;15.52;;;6.70;;
65924;SDS011;66010;52.084;5.412;2023-04-24T10:00:26;13.93;;;6.25;;
65924;SDS011;66010;52.084;5.412;2023-04-24T10:02:57;15.68;;;6.40;;
65924;SDS011;66010;52.084;5.412;2023-04-24T10:05:24;19.50;;;6.60;;
65924;SDS011;66010;52.084;5.412;2023-04-24T10:07:55;13.60;;;5.75;;
65924;SDS011;66010;52.084;5.412;2023-04-24T10:10:22;14.48;;;5.90;;
65924;SDS011;66010;52.084;5.412;2023-04-24T10:12:49;14.13;;;6.28;;
65924;SDS011;66010;52.084;5.412;2023-04-24T10:15:16;13.80;;;5.80;;
65924;SDS011;66010;52.084;5.412;2023-04-24T10:17:47;14.43;;;6.00;;
65924;SDS011;66010;52.084;5.412;2023-04-24T10:20:26;14.15;;;5.60;;
65924;SDS011;66010;52.084;5.412;2023-04-24T10:22:53;12.85;;;5.32;;
65924;SDS011;66010;52.084;5.412;2023-04-24T10:25:20;14.13;;;5.70;;
65924;SDS011;66010;52.084;5.412;2023-04-24T10:27:48;12.82;;;4.70;;
65924;SDS011;66010;52.084;5.412;2023-04-24T10:30:15;11.82;;;5.18;;
65924;SDS011;66010;52.084;5.412;2023-04-24T10:32:42;13.55;;;5.07;;
65924;SDS011;66010;52.084;5.412;2023-04-24T10:35:09;10.88;;;4.47;;
65924;SDS011;66010;52.084;5.412;2023-04-24T10:37:40;10.43;;;4.43;;
65924;SDS011;66010;52.084;5.412;2023-04-24T10:40:08;11.55;;;4.30;;
65924;SDS011;66010;52.084;5.412;2023-04-24T10:42:35;11.02;;;4.57;;
65924;SDS011;66010;52.084;5.412;2023-04-24T10:45:05;11.10;;;4.20;;
65924;SDS011;66010;52.084;5.412;2023-04-24T10:47:41;10.70;;;3.75;;
65924;SDS011;66010;52.084;5.412;2023-04-24T10:50:09;9.30;;;3.90;;
65924;SDS011;66010;52.084;5.412;2023-04-24T10:52:46;9.55;;;3.72;;
65924;SDS011;66010;52.084;5.412;2023-04-24T10:55:13;9.90;;;4.10;;
65924;SDS011;66010;52.084;5.412;2023-04-24T10:58:00;9.60;;;3.72;;
65924;SDS011;66010;52.084;5.412;2023-04-24T11:00:27;8.60;;;3.28;;
65924;SDS011;66010;52.084;5.412;2023-04-24T11:02:53;9.40;;;3.67;;
65924;SDS011;66010;52.084;5.412;2023-04-24T11:05:21;11.35;;;3.40;;
65924;SDS011;66010;52.084;5.412;2023-04-24T11:10:33;8.90;;;3.40;;
65924;SDS011;66010;52.084;5.412;2023-04-24T11:13:01;9.00;;;3.50;;
65924;SDS011;66010;52.084;5.412;2023-04-24T11:15:28;10.20;;;3.22;;
65924;SDS011;66010;52.084;5.412;2023-04-24T11:17:55;8.00;;;3.00;;
65924;SDS011;66010;52.084;5.412;2023-04-24T11:20:23;9.57;;;3.08;;
65924;SDS011;66010;52.084;5.412;2023-04-24T11:22:54;10.63;;;3.50;;
65924;SDS011;66010;52.084;5.412;2023-04-24T11:25:21;8.25;;;3.00;;
65924;SDS011;66010;52.084;5.412;2023-04-24T11:27:52;10.27;;;3.13;;
65924;SDS011;66010;52.084;5.412;2023-04-24T11:30:29;7.82;;;2.78;;
65924;SDS011;66010;52.084;5.412;2023-04-24T11:32:55;8.75;;;2.80;;
65924;SDS011;66010;52.084;5.412;2023-04-24T11:35:27;8.52;;;3.00;;
65924;SDS011;66010;52.084;5.412;2023-04-24T11:37:56;14.63;;;3.30;;
65924;SDS011;66010;52.084;5.412;2023-04-24T11:40:26;9.45;;;2.65;;
65924;SDS011;66010;52.084;5.412;2023-04-24T11:42:53;10.77;;;2.90;;
65924;SDS011;66010;52.084;5.412;2023-04-24T11:45:26;9.95;;;2.97;;
65924;SDS011;66010;52.084;5.412;2023-04-24T11:47:53;8.95;;;2.67;;
65924;SDS011;66010;52.084;5.412;2023-04-24T11:50:21;8.93;;;2.40;;
65924;SDS011;66010;52.084;5.412;2023-04-24T11:52:49;8.88;;;2.63;;
65924;SDS011;66010;52.084;5.412;2023-04-24T11:57:43;8.93;;;2.42;;
65924;SDS011;66010;52.084;5.412;2023-04-24T12:02:44;7.00;;;2.25;;
65924;SDS011;66010;52.084;5.412;2023-04-24T12:07:48;6.78;;;2.20;;
65924;SDS011;66010;52.084;5.412;2023-04-24T12:10:19;6.07;;;2.20;;
65924;SDS011;66010;52.084;5.412;2023-04-24T12:12:46;8.90;;;2.38;;
65924;SDS011;66010;52.084;5.412;2023-04-24T12:15:13;6.43;;;2.17;;
65924;SDS011;66010;52.084;5.412;2023-04-24T12:17:42;5.93;;;2.00;;
65924;SDS011;66010;52.084;5.412;2023-04-24T12:20:08;7.07;;;2.15;;
65924;SDS011;66010;52.084;5.412;2023-04-24T12:22:54;4.97;;;2.20;;
65924;SDS011;66010;52.084;5.412;2023-04-24T12:25:27;9.50;;;2.10;;
65924;SDS011;66010;52.084;5.412;2023-04-24T12:27:55;6.68;;;2.20;;
65924;SDS011;66010;52.084;5.412;2023-04-24T12:30:26;8.27;;;2.17;;
65924;SDS011;66010;52.084;5.412;2023-04-24T12:32:53;7.82;;;2.42;;
65924;SDS011;66010;52.084;5.412;2023-04-24T12:35:25;5.82;;;1.92;;
65924;SDS011;66010;52.084;5.412;2023-04-24T12:37:51;5.25;;;1.77;;
65924;SDS011;66010;52.084;5.412;2023-04-24T12:40:19;5.85;;;1.98;;
65924;SDS011;66010;52.084;5.412;2023-04-24T12:42:46;5.13;;;1.63;;
65924;SDS011;66010;52.084;5.412;2023-04-24T12:47:40;6.13;;;1.83;;
65924;SDS011;66010;52.084;5.412;2023-04-24T12:50:07;5.55;;;1.90;;
65924;SDS011;66010;52.084;5.412;2023-04-24T12:52:34;7.57;;;1.55;;
65924;SDS011;66010;52.084;5.412;2023-04-24T12:55:00;5.65;;;1.70;;
65924;SDS011;66010;52.084;5.412;2023-04-24T12:57:28;5.80;;;1.70;;
65924;SDS011;66010;52.084;5.412;2023-04-24T13:02:25;6.25;;;2.00;;
65924;SDS011;66010;52.084;5.412;2023-04-24T13:04:53;8.10;;;2.10;;
65924;SDS011;66010;52.084;5.412;2023-04-24T13:07:20;5.18;;;1.77;;
65924;SDS011;66010;52.084;5.412;2023-04-24T13:09:47;6.55;;;1.63;;
65924;SDS011;66010;52.084;5.412;2023-04-24T13:12:13;5.45;;;1.67;;
65924;SDS011;66010;52.084;5.412;2023-04-24T13:14:40;5.25;;;1.70;;
65924;SDS011;66010;52.084;5.412;2023-04-24T13:17:07;4.43;;;1.50;;
65924;SDS011;66010;52.084;5.412;2023-04-24T13:19:36;4.78;;;1.50;;
65924;SDS011;66010;52.084;5.412;2023-04-24T13:22:03;5.05;;;1.70;;
65924;SDS011;66010;52.084;5.412;2023-04-24T13:24:30;5.07;;;1.58;;
65924;SDS011;66010;52.084;5.412;2023-04-24T13:26:57;6.05;;;1.73;;
65924;SDS011;66010;52.084;5.412;2023-04-24T13:29:24;5.10;;;1.50;;
65924;SDS011;66010;52.084;5.412;2023-04-24T13:31:51;4.70;;;1.50;;
65924;SDS011;66010;52.084;5.412;2023-04-24T13:34:17;4.78;;;1.42;;
65924;SDS011;66010;52.084;5.412;2023-04-24T13:36:44;5.05;;;1.50;;
65924;SDS011;66010;52.084;5.412;2023-04-24T13:39:11;14.20;;;1.85;;
65924;SDS011;66010;52.084;5.412;2023-04-24T13:41:37;6.10;;;1.52;;
65924;SDS011;66010;52.084;5.412;2023-04-24T13:44:04;5.50;;;1.40;;
65924;SDS011;66010;52.084;5.412;2023-04-24T13:46:30;5.70;;;1.50;;
65924;SDS011;66010;52.084;5.412;2023-04-24T13:48:57;9.65;;;1.60;;
65924;SDS011;66010;52.084;5.412;2023-04-24T13:51:25;9.00;;;1.73;;
65924;SDS011;66010;52.084;5.412;2023-04-24T13:53:53;8.27;;;1.80;;
65924;SDS011;66010;52.084;5.412;2023-04-24T13:56:20;7.15;;;1.67;;
65924;SDS011;66010;52.084;5.412;2023-04-24T13:58:47;12.98;;;2.03;;
65924;SDS011;66010;52.084;5.412;2023-04-24T14:01:13;8.38;;;2.00;;
65924;SDS011;66010;52.084;5.412;2023-04-24T14:03:41;6.53;;;1.60;;
65924;SDS011;66010;52.084;5.412;2023-04-24T14:06:10;6.50;;;1.50;;
65924;SDS011;66010;52.084;5.412;2023-04-24T14:08:36;8.38;;;2.03;;
65924;SDS011;66010;52.084;5.412;2023-04-24T14:11:03;8.63;;;2.20;;
65924;SDS011;66010;52.084;5.412;2023-04-24T14:13:30;8.73;;;2.05;;
65924;SDS011;66010;52.084;5.412;2023-04-24T14:15:56;8.50;;;1.95;;
65924;SDS011;66010;52.084;5.412;2023-04-24T14:18:24;8.00;;;2.03;;
65924;SDS011;66010;52.084;5.412;2023-04-24T14:20:50;10.00;;;2.33;;
65924;SDS011;66010;52.084;5.412;2023-04-24T14:23:17;11.45;;;2.20;;
65924;SDS011;66010;52.084;5.412;2023-04-24T14:25:44;8.55;;;2.10;;
65924;SDS011;66010;52.084;5.412;2023-04-24T14:28:10;8.88;;;1.98;;
65924;SDS011;66010;52.084;5.412;2023-04-24T14:30:37;7.97;;;1.95;;
65924;SDS011;66010;52.084;5.412;2023-04-24T14:33:03;9.15;;;2.10;;
65924;SDS011;66010;52.084;5.412;2023-04-24T14:35:30;8.48;;;1.88;;
65924;SDS011;66010;52.084;5.412;2023-04-24T14:37:59;8.90;;;2.10;;
65924;SDS011;66010;52.084;5.412;2023-04-24T14:40:25;7.22;;;2.00;;
65924;SDS011;66010;52.084;5.412;2023-04-24T14:43:12;7.82;;;2.00;;
65924;SDS011;66010;52.084;5.412;2023-04-24T14:45:38;6.75;;;1.83;;
65924;SDS011;66010;52.084;5.412;2023-04-24T14:48:06;7.03;;;1.80;;
65924;SDS011;66010;52.084;5.412;2023-04-24T14:50:34;6.40;;;1.90;;
65924;SDS011;66010;52.084;5.412;2023-04-24T14:53:01;6.85;;;1.60;;
65924;SDS011;66010;52.084;5.412;2023-04-24T14:55:28;8.93;;;2.10;;
65924;SDS011;66010;52.084;5.412;2023-04-24T14:57:55;10.80;;;3.75;;
65924;SDS011;66010;52.084;5.412;2023-04-24T15:00:22;15.07;;;4.85;;
65924;SDS011;66010;52.084;5.412;2023-04-24T15:02:50;15.52;;;4.90;;
65924;SDS011;66010;52.084;5.412;2023-04-24T15:05:17;16.08;;;5.15;;
65924;SDS011;66010;52.084;5.412;2023-04-24T15:07:44;14.13;;;4.70;;
65924;SDS011;66010;52.084;5.412;2023-04-24T15:10:11;11.40;;;4.30;;
65924;SDS011;66010;52.084;5.412;2023-04-24T15:12:38;12.15;;;4.05;;
65924;SDS011;66010;52.084;5.412;2023-04-24T15:15:05;11.52;;;4.05;;
65924;SDS011;66010;52.084;5.412;2023-04-24T15:17:31;15.68;;;4.93;;
65924;SDS011;66010;52.084;5.412;2023-04-24T15:19:59;11.60;;;4.20;;
65924;SDS011;66010;52.084;5.412;2023-04-24T15:22:27;12.18;;;4.00;;
65924;SDS011;66010;52.084;5.412;2023-04-24T15:24:53;11.18;;;3.70;;
65924;SDS011;66010;52.084;5.412;2023-04-24T15:27:20;11.13;;;4.13;;
65924;SDS011;66010;52.084;5.412;2023-04-24T15:29:46;12.38;;;4.07;;
65924;SDS011;66010;52.084;5.412;2023-04-24T15:32:13;11.48;;;3.83;;